createdAt,value
2018-01-16T00:01:54.166Z,52.00
2018-01-16T00:04:21.956Z,51.47
2018-01-16T00:06:49.762Z,49.67
2018-01-16T00:09:18.363Z,44.90
2018-01-16T00:11:46.155Z,47.97
2018-01-16T00:14:13.947Z,44.10
2018-01-16T00:16:41.743Z,44.07
2018-01-16T00:19:10.254Z,48.27
2018-01-16T00:21:38.839Z,45.73
2018-01-16T00:24:06.672Z,44.00
2018-01-16T00:26:34.403Z,43.90
2018-01-16T00:29:02.190Z,42.77
2018-01-16T00:31:30.016Z,48.13
2018-01-16T00:34:00.110Z,42.10
2018-01-16T00:36:27.903Z,43.90
2018-01-16T00:38:55.694Z,42.77
2018-01-16T00:41:23.448Z,41.80
2018-01-16T00:43:51.184Z,45.17
2018-01-16T00:46:18.993Z,45.50
2018-01-16T00:48:46.837Z,43.53
2018-01-16T00:51:14.647Z,45.87
2018-01-16T00:53:42.811Z,40.60
2018-01-16T00:56:10.621Z,43.37
2018-01-16T00:58:38.350Z,43.13
2018-01-16T01:01:06.882Z,43.97
2018-01-16T01:03:34.681Z,48.70
2018-01-16T01:06:03.274Z,41.43
2018-01-16T01:08:31.069Z,42.33
2018-01-16T01:10:58.925Z,43.63
2018-01-16T01:13:26.689Z,42.43
2018-01-16T01:15:54.462Z,42.37
2018-01-16T01:18:22.226Z,42.47
2018-01-16T01:20:50.026Z,46.90
2018-01-16T01:23:17.772Z,39.53
2018-01-16T01:25:45.586Z,39.30
2018-01-16T01:28:13.361Z,46.33
2018-01-16T01:30:41.164Z,40.17
2018-01-16T01:33:08.976Z,42.53
2018-01-16T01:35:36.748Z,38.60
2018-01-16T01:38:04.496Z,44.10
2018-01-16T01:40:32.232Z,49.20
2018-01-16T01:43:00.029Z,44.70
2018-01-16T01:45:27.808Z,37.57
2018-01-16T01:47:55.635Z,42.60
2018-01-16T01:50:23.422Z,42.93
2018-01-16T01:52:51.414Z,39.03
2018-01-16T01:55:19.249Z,42.00
2018-01-16T01:57:47.054Z,42.93
2018-01-16T02:00:14.846Z,39.67
2018-01-16T02:02:43.407Z,39.97
2018-01-16T02:05:11.196Z,43.80
2018-01-16T02:07:38.953Z,44.10
2018-01-16T02:10:06.773Z,40.10
2018-01-16T02:12:34.595Z,47.97
2018-01-16T02:15:03.168Z,38.13
2018-01-16T02:17:30.991Z,41.67
2018-01-16T02:19:58.718Z,45.13
2018-01-16T02:22:26.501Z,44.80
2018-01-16T02:24:54.423Z,46.00
2018-01-16T02:27:22.184Z,52.80
2018-01-16T02:29:49.981Z,53.00
2018-01-16T02:32:17.828Z,47.90
2018-01-16T02:34:45.586Z,47.70
2018-01-16T02:37:13.381Z,50.70
2018-01-16T02:39:41.219Z,45.33
2018-01-16T02:42:09.007Z,44.70
2018-01-16T02:44:36.805Z,48.63
2018-01-16T02:47:04.671Z,49.93
2018-01-16T02:49:32.484Z,48.07
2018-01-16T02:52:00.285Z,47.53
2018-01-16T02:54:28.156Z,48.07
2018-01-16T02:56:56.648Z,50.23
2018-01-16T02:59:24.432Z,47.23
2018-01-16T03:01:52.150Z,59.60
2018-01-16T03:04:19.980Z,52.37
2018-01-16T03:06:47.736Z,52.83
2018-01-16T03:09:15.520Z,50.33
2018-01-16T03:11:43.327Z,46.87
2018-01-16T03:14:11.047Z,52.30
2018-01-16T03:16:38.866Z,48.77
2018-01-16T03:19:06.668Z,48.83
2018-01-16T03:21:34.405Z,46.57
2018-01-16T03:24:02.204Z,49.73
2018-01-16T03:26:29.937Z,47.27
2018-01-16T03:28:57.676Z,48.00
2018-01-16T03:31:25.434Z,56.03
2018-01-16T03:33:53.217Z,52.37
2018-01-16T03:36:21.004Z,53.60
2018-01-16T03:38:48.857Z,53.83
2018-01-16T03:41:16.592Z,64.27
2018-01-16T03:43:44.336Z,62.37
2018-01-16T03:46:12.115Z,63.70
2018-01-16T03:48:39.918Z,62.70
2018-01-16T03:51:07.643Z,61.07
2018-01-16T03:53:35.689Z,59.60
2018-01-16T03:56:03.497Z,65.53
2018-01-16T03:58:31.308Z,60.13
2018-01-16T04:00:59.127Z,70.50
2018-01-16T04:03:26.948Z,64.47
2018-01-16T04:05:54.754Z,66.53
2018-01-16T04:08:22.504Z,62.43
2018-01-16T04:10:50.222Z,64.70
2018-01-16T04:13:17.967Z,63.27
2018-01-16T04:15:45.801Z,71.50
2018-01-16T04:18:13.594Z,63.00
2018-01-16T04:20:41.383Z,67.50
2018-01-16T04:23:09.178Z,66.60
2018-01-16T04:25:37.051Z,59.70
2018-01-16T04:28:05.583Z,55.40
2018-01-16T04:30:33.381Z,60.40
2018-01-16T04:33:01.160Z,59.40
2018-01-16T04:35:28.921Z,65.03
2018-01-16T04:37:56.716Z,62.57
2018-01-16T04:40:24.526Z,60.70
2018-01-16T04:42:52.301Z,66.50
2018-01-16T04:45:20.124Z,64.53
2018-01-16T04:47:48.646Z,68.47
2018-01-16T04:50:16.373Z,58.87
2018-01-16T04:52:44.125Z,76.57
2018-01-16T04:55:11.933Z,68.23
2018-01-16T04:57:39.659Z,64.90
2018-01-16T05:00:07.473Z,63.40
2018-01-16T05:02:35.232Z,64.53
2018-01-16T05:05:02.985Z,72.47
2018-01-16T05:07:30.784Z,62.47
2018-01-16T05:09:58.527Z,70.10
2018-01-16T05:12:26.296Z,66.43
2018-01-16T05:14:54.040Z,68.13
2018-01-16T05:17:21.818Z,64.00
2018-01-16T05:19:49.606Z,65.53
2018-01-16T05:22:17.348Z,62.80
2018-01-16T05:24:45.089Z,64.47
2018-01-16T05:27:12.909Z,69.60
2018-01-16T05:29:40.673Z,75.80
2018-01-16T05:32:08.437Z,68.23
2018-01-16T05:34:36.234Z,65.83
2018-01-16T05:37:04.058Z,71.53
2018-01-16T05:39:32.192Z,89.27
2018-01-16T05:44:35.288Z,71.80
2018-01-16T05:47:03.862Z,74.00
2018-01-16T05:49:31.749Z,65.73
2018-01-16T05:51:59.659Z,68.73
2018-01-16T05:54:28.150Z,64.63
2018-01-16T05:56:55.988Z,72.67
2018-01-16T05:59:23.799Z,67.63
2018-01-16T06:01:51.571Z,63.27
2018-01-16T06:04:19.314Z,61.97
2018-01-16T06:06:47.109Z,79.60
2018-01-16T06:09:14.851Z,74.40
2018-01-16T06:11:42.618Z,73.17
2018-01-16T06:14:10.371Z,84.53
2018-01-16T06:16:38.198Z,70.47
2018-01-16T06:19:06.303Z,77.13
2018-01-16T06:21:34.882Z,82.83
2018-01-16T06:24:02.718Z,69.63
2018-01-16T06:26:30.654Z,76.87
2018-01-16T06:28:59.809Z,77.70
2018-01-16T06:31:29.265Z,73.40
2018-01-16T06:33:59.652Z,78.10
2018-01-16T06:36:27.393Z,67.87
2018-01-16T06:38:56.892Z,77.90
2018-01-16T06:41:24.796Z,70.93
2018-01-16T06:43:53.406Z,67.50
2018-01-16T06:46:21.131Z,71.97
2018-01-16T06:48:48.882Z,61.87
2018-01-16T06:51:16.690Z,69.93
2018-01-16T06:53:44.540Z,67.20
2018-01-16T06:56:12.291Z,61.63
2018-01-16T06:58:40.036Z,52.43
2018-01-16T07:01:07.770Z,51.60
2018-01-16T07:03:35.590Z,64.83
2018-01-16T07:06:04.363Z,61.10
2018-01-16T07:08:32.120Z,56.20
2018-01-16T07:10:59.961Z,58.63
2018-01-16T07:13:27.790Z,56.40
2018-01-16T07:15:55.630Z,53.60
2018-01-16T07:18:23.467Z,49.00
2018-01-16T07:20:52.041Z,57.33
2018-01-16T07:23:19.868Z,52.27
2018-01-16T07:25:47.610Z,57.23
2018-01-16T07:28:15.441Z,50.63
2018-01-16T07:30:43.969Z,53.03
2018-01-16T07:33:11.721Z,53.90
2018-01-16T07:35:39.513Z,56.37
2018-01-16T07:38:07.320Z,58.60
2018-01-16T07:40:35.194Z,57.73
2018-01-16T07:43:03.796Z,57.17
2018-01-16T07:45:31.604Z,49.93
2018-01-16T07:47:59.401Z,52.77
2018-01-16T07:50:27.220Z,52.03
2018-01-16T07:52:55.042Z,47.03
2018-01-16T07:55:22.853Z,56.00
2018-01-16T07:57:50.938Z,55.83
2018-01-16T08:00:18.799Z,59.30
2018-01-16T08:02:46.535Z,54.90
2018-01-16T08:05:14.315Z,59.80
2018-01-16T08:07:42.128Z,54.70
2018-01-16T08:10:09.860Z,51.57
2018-01-16T08:12:37.633Z,54.10
2018-01-16T08:15:05.435Z,53.83
2018-01-16T08:17:33.181Z,53.50
2018-01-16T08:20:00.986Z,56.80
2018-01-16T08:22:29.860Z,55.63
2018-01-16T08:24:57.741Z,52.50
2018-01-16T08:27:25.524Z,53.17
2018-01-16T08:29:53.274Z,54.47
2018-01-16T08:32:21.040Z,51.87
2018-01-16T08:34:48.792Z,54.17
2018-01-16T08:37:16.639Z,52.80
2018-01-16T08:39:44.384Z,50.17
2018-01-16T08:42:12.147Z,55.80
2018-01-16T08:44:39.895Z,53.97
2018-01-16T08:47:08.506Z,51.57
2018-01-16T08:49:36.283Z,53.47
2018-01-16T08:52:04.120Z,53.60
2018-01-16T08:54:32.648Z,51.97
2018-01-16T08:57:00.381Z,49.87
2018-01-16T08:59:28.200Z,46.93
2018-01-16T09:01:56.027Z,49.77
2018-01-16T09:04:23.764Z,52.40
2018-01-16T09:06:51.592Z,55.80
2018-01-16T09:09:19.360Z,51.97
2018-01-16T09:11:47.187Z,48.47
2018-01-16T09:14:15.798Z,50.73
2018-01-16T09:16:43.626Z,48.17
2018-01-16T09:19:12.175Z,48.33
2018-01-16T09:21:39.950Z,50.27
2018-01-16T09:24:08.461Z,50.53
2018-01-16T09:26:37.074Z,47.50
2018-01-16T09:29:04.868Z,48.10
2018-01-16T09:31:32.668Z,53.10
2018-01-16T09:34:00.405Z,48.37
2018-01-16T09:36:28.225Z,55.67
2018-01-16T09:38:56.800Z,51.80
2018-01-16T09:41:24.686Z,49.40
2018-01-16T09:43:52.521Z,53.17
2018-01-16T09:46:20.390Z,56.73
2018-01-16T09:48:48.144Z,50.07
2018-01-16T09:51:15.971Z,54.70
2018-01-16T09:53:43.767Z,50.30
2018-01-16T09:56:11.518Z,60.27
2018-01-16T09:58:39.291Z,55.47
2018-01-16T10:01:07.041Z,55.23
2018-01-16T10:03:34.776Z,60.57
2018-01-16T10:06:02.534Z,60.17
2018-01-16T10:08:30.296Z,58.90
2018-01-16T10:10:58.038Z,62.07
2018-01-16T10:13:25.777Z,61.97
2018-01-16T10:15:53.597Z,65.13
2018-01-16T10:18:21.430Z,64.20
2018-01-16T10:20:49.282Z,74.73
2018-01-16T10:23:17.029Z,60.57
2018-01-16T10:25:45.552Z,71.33
2018-01-16T10:28:13.328Z,73.07
2018-01-16T10:30:41.102Z,65.43
2018-01-16T10:33:08.856Z,71.07
2018-01-16T10:35:36.669Z,75.70
2018-01-16T10:38:04.454Z,70.23
2018-01-16T10:40:32.221Z,75.53
2018-01-16T10:42:59.989Z,64.07
2018-01-16T10:45:27.799Z,69.00
2018-01-16T10:47:55.540Z,69.47
2018-01-16T10:50:23.349Z,72.20
2018-01-16T10:52:51.187Z,69.53
2018-01-16T10:55:19.011Z,60.90
2018-01-16T10:57:46.745Z,71.70
2018-01-16T11:00:14.556Z,61.80
2018-01-16T11:02:42.339Z,60.80
2018-01-16T11:05:10.067Z,64.83
2018-01-16T11:07:38.623Z,79.10
2018-01-16T11:10:06.346Z,75.30
2018-01-16T11:12:34.159Z,78.33
2018-01-16T11:15:01.998Z,77.13
2018-01-16T11:17:29.820Z,78.63
2018-01-16T11:19:57.594Z,67.13
2018-01-16T11:22:25.397Z,74.40
2018-01-16T11:24:53.200Z,72.83
2018-01-16T11:27:20.960Z,81.83
2018-01-16T11:29:48.738Z,72.03
2018-01-16T11:32:16.477Z,77.77
2018-01-16T11:34:44.211Z,71.60
2018-01-16T11:37:12.030Z,65.23
2018-01-16T11:39:39.852Z,70.60
2018-01-16T11:42:07.600Z,65.93
2018-01-16T11:44:35.382Z,69.93
2018-01-16T11:47:03.187Z,70.87
2018-01-16T11:49:31.010Z,62.90
2018-01-16T11:51:58.810Z,70.10
2018-01-16T11:54:26.573Z,71.90
2018-01-16T11:56:54.332Z,63.03
2018-01-16T11:59:22.140Z,66.10
2018-01-16T12:01:49.970Z,70.03
2018-01-16T12:04:17.708Z,64.40
2018-01-16T12:06:45.552Z,68.47
2018-01-16T12:09:13.332Z,57.47
2018-01-16T12:11:41.138Z,63.43
2018-01-16T12:14:08.930Z,65.00
2018-01-16T12:16:36.740Z,61.37
2018-01-16T12:19:05.243Z,69.33
2018-01-16T12:21:33.083Z,74.37
2018-01-16T12:24:00.814Z,66.03
2018-01-16T12:26:28.568Z,66.50
2018-01-16T12:28:56.406Z,69.53
2018-01-16T12:31:24.230Z,74.17
2018-01-16T12:33:58.527Z,74.07
2018-01-16T12:36:26.274Z,75.30
2018-01-16T12:38:54.032Z,75.83
2018-01-16T12:41:21.828Z,78.97
2018-01-16T12:43:49.577Z,70.10
2018-01-16T12:46:17.335Z,90.53
2018-01-16T12:48:45.202Z,83.03
2018-01-16T12:51:12.990Z,80.57
2018-01-16T12:53:40.793Z,85.40
2018-01-16T12:56:08.595Z,75.47
2018-01-16T12:58:36.360Z,79.10
2018-01-16T13:01:04.441Z,80.83
2018-01-16T13:03:32.256Z,75.50
2018-01-16T13:06:00.025Z,76.97
2018-01-16T13:08:27.820Z,74.17
2018-01-16T13:10:56.506Z,83.20
2018-01-16T13:13:25.175Z,72.47
2018-01-16T13:15:53.033Z,73.30
2018-01-16T13:18:20.829Z,68.23
2018-01-16T13:20:48.619Z,66.53
2018-01-16T13:23:16.471Z,85.00
2018-01-16T13:25:45.208Z,76.77
2018-01-16T13:28:16.167Z,78.90
2018-01-16T13:30:43.990Z,76.87
2018-01-16T13:33:11.786Z,81.97
2018-01-16T13:35:39.663Z,70.90
2018-01-16T13:38:07.522Z,72.37
2018-01-16T13:40:35.310Z,73.20
2018-01-16T13:43:03.078Z,79.27
2018-01-16T13:45:31.615Z,79.47
2018-01-16T13:47:59.744Z,80.40
2018-01-16T13:50:27.969Z,75.43
2018-01-16T13:52:56.727Z,72.20
2018-01-16T13:55:25.298Z,72.03
2018-01-16T13:57:53.309Z,58.47
2018-01-16T14:00:21.094Z,56.13
2018-01-16T14:02:48.857Z,63.20
2018-01-16T14:05:16.688Z,69.77
2018-01-16T14:07:44.591Z,62.67
2018-01-16T14:10:12.387Z,73.57
2018-01-16T14:12:40.223Z,63.53
2018-01-16T14:15:08.245Z,64.23
2018-01-16T14:17:36.088Z,76.17
2018-01-16T14:20:03.885Z,63.97
2018-01-16T14:22:31.738Z,63.20
2018-01-16T14:24:59.550Z,67.57
2018-01-16T14:27:28.096Z,67.63
2018-01-16T14:29:55.935Z,62.27
2018-01-16T14:32:23.767Z,61.47
2018-01-16T14:34:52.320Z,65.13
2018-01-16T14:37:20.127Z,71.20
2018-01-16T14:39:48.699Z,59.50
2018-01-16T14:42:16.521Z,64.20
2018-01-16T14:44:44.364Z,65.30
2018-01-16T14:47:12.250Z,67.90
2018-01-16T14:49:40.127Z,74.03
2018-01-16T14:52:08.003Z,64.37
2018-01-16T14:54:35.754Z,66.90
2018-01-16T14:57:03.576Z,67.67
2018-01-16T14:59:32.136Z,64.03
2018-01-16T15:01:59.924Z,65.07
2018-01-16T15:04:27.797Z,69.23
2018-01-16T15:06:56.353Z,63.03
2018-01-16T15:09:24.125Z,59.97
2018-01-16T15:11:51.922Z,71.50
2018-01-16T15:14:19.691Z,62.33
2018-01-16T15:16:47.533Z,56.90
2018-01-16T15:19:15.332Z,68.00
2018-01-16T15:21:43.897Z,57.37
2018-01-16T15:24:11.683Z,53.33
2018-01-16T15:26:39.512Z,50.00
2018-01-16T15:29:07.289Z,59.17
2018-01-16T15:31:35.099Z,57.57
2018-01-16T15:34:03.001Z,57.77
2018-01-16T15:36:30.797Z,58.13
2018-01-16T15:38:58.616Z,57.50
2018-01-16T15:41:26.407Z,54.57
2018-01-16T15:43:54.169Z,57.03
2018-01-16T15:46:21.949Z,62.37
2018-01-16T15:48:49.710Z,58.57
2018-01-16T15:51:17.534Z,53.10
2018-01-16T15:53:46.184Z,49.87
2018-01-16T15:56:15.575Z,54.90
2018-01-16T15:58:43.445Z,54.57
2018-01-16T16:01:11.227Z,49.30
2018-01-16T16:03:39.437Z,51.50
2018-01-16T16:06:08.003Z,49.00
2018-01-16T16:08:35.810Z,45.30
2018-01-16T16:11:03.574Z,48.17
2018-01-16T16:13:31.458Z,48.37
2018-01-16T16:15:59.373Z,48.77
2018-01-16T16:21:48.904Z,51.40
2018-01-16T16:24:16.764Z,43.70
2018-01-16T16:26:44.630Z,44.37
2018-01-16T16:29:12.494Z,47.40
2018-01-16T16:31:40.883Z,47.03
2018-01-16T16:34:08.854Z,53.40
2018-01-16T16:36:37.794Z,57.37
2018-01-16T16:39:06.719Z,59.67
2018-01-16T16:41:35.424Z,51.53
2018-01-16T16:44:03.905Z,57.53
2018-01-16T16:46:32.895Z,62.97
2018-01-16T16:49:01.058Z,51.43
2018-01-16T16:51:29.447Z,48.20
2018-01-16T16:53:57.520Z,52.47
2018-01-16T16:56:25.594Z,53.43
2018-01-16T16:58:53.952Z,54.47
2018-01-16T17:01:22.861Z,51.23
2018-01-16T17:03:50.699Z,50.10
2018-01-16T17:06:18.905Z,43.73
2018-01-16T17:08:47.717Z,49.67
2018-01-16T17:11:16.476Z,50.07
2018-01-16T17:13:44.334Z,48.37
2018-01-16T17:16:12.197Z,53.80
2018-01-16T17:18:40.082Z,49.00
2018-01-16T17:21:08.040Z,53.40
2018-01-16T17:23:35.899Z,54.07
2018-01-16T17:26:03.878Z,53.67
2018-01-16T17:28:34.052Z,58.40
2018-01-16T17:31:02.010Z,57.07
2018-01-16T17:33:29.927Z,53.53
2018-01-16T17:35:58.009Z,57.37
2018-01-16T17:38:26.186Z,55.33
2018-01-16T17:40:54.877Z,55.17
2018-01-16T17:43:23.757Z,48.60
2018-01-16T17:45:52.137Z,51.20
2018-01-16T17:48:19.992Z,52.43
2018-01-16T17:50:47.969Z,54.80
2018-01-16T17:53:15.835Z,56.43
2018-01-16T17:55:43.807Z,58.93
2018-01-16T17:58:11.665Z,57.93
2018-01-16T18:00:39.639Z,58.73
2018-01-16T18:03:07.465Z,62.07
2018-01-16T18:05:35.366Z,61.67
2018-01-16T18:08:05.895Z,78.37
2018-01-16T18:10:36.187Z,70.10
2018-01-16T18:13:04.393Z,68.23
2018-01-16T18:15:32.266Z,73.97
2018-01-16T18:18:03.127Z,77.10
2018-01-16T18:20:32.283Z,61.97
2018-01-16T18:23:08.319Z,72.60
2018-01-16T18:25:36.353Z,69.00
2018-01-16T18:28:06.468Z,70.40
2018-01-16T18:30:35.235Z,60.97
2018-01-16T18:33:03.825Z,59.13
2018-01-16T18:35:31.887Z,57.00
2018-01-16T18:38:00.290Z,61.23
2018-01-16T18:40:29.050Z,56.67
2018-01-16T18:42:58.662Z,63.57
2018-01-16T18:45:28.374Z,56.70
2018-01-16T18:47:57.359Z,59.33
2018-01-16T18:50:26.146Z,58.83
2018-01-16T18:52:55.036Z,60.83
2018-01-16T18:55:23.216Z,63.50
2018-01-16T18:57:51.138Z,56.60
2018-01-16T19:00:19.261Z,59.43
2018-01-16T19:02:47.120Z,56.87
2018-01-16T19:05:16.067Z,55.60
2018-01-16T19:07:43.977Z,56.00
2018-01-16T19:10:11.846Z,56.10
2018-01-16T19:12:40.599Z,55.23
2018-01-16T19:15:09.117Z,56.23
2018-01-16T19:17:38.418Z,58.47
2018-01-16T19:20:06.388Z,57.00
2018-01-16T19:22:35.066Z,56.67
2018-01-16T19:25:02.941Z,62.80
2018-01-16T19:27:30.800Z,56.30
2018-01-16T19:29:58.779Z,58.67
2018-01-16T19:32:26.644Z,61.77
2018-01-16T19:34:55.333Z,52.30
2018-01-16T19:37:23.404Z,60.03
2018-01-16T19:39:53.100Z,58.00
2018-01-16T19:42:22.146Z,56.83
2018-01-16T19:44:52.210Z,65.03
2018-01-16T19:47:20.711Z,64.80
2018-01-16T19:49:50.682Z,61.40
2018-01-16T19:52:18.680Z,60.93
2018-01-16T19:54:47.811Z,63.93
2018-01-16T19:57:17.601Z,60.47
2018-01-16T19:59:48.478Z,70.83
2018-01-16T20:02:18.287Z,70.73
2018-01-16T20:04:48.575Z,73.10
2018-01-16T20:07:17.701Z,67.97
2018-01-16T20:09:48.736Z,71.20
2018-01-16T20:12:18.556Z,69.63
2018-01-16T20:14:48.782Z,69.03
2018-01-16T20:17:18.620Z,72.70
2018-01-16T20:19:47.842Z,73.13
2018-01-16T20:22:18.237Z,65.93
2018-01-16T20:24:48.846Z,75.90
2018-01-16T20:27:17.799Z,61.73
2018-01-16T20:29:48.370Z,77.70
2018-01-16T20:32:17.741Z,67.77
2018-01-16T20:34:46.296Z,66.53
2018-01-16T20:37:14.405Z,64.93
2018-01-16T20:39:43.768Z,61.30
2018-01-16T20:42:12.471Z,59.10
2018-01-16T20:44:41.363Z,61.40
2018-01-16T20:47:09.326Z,58.20
2018-01-16T20:49:37.300Z,60.00
2018-01-16T20:52:05.475Z,59.00
2018-01-16T20:54:34.568Z,68.00
2018-01-16T20:57:02.404Z,62.17
2018-01-16T20:59:30.296Z,63.20
2018-01-16T21:01:58.299Z,63.90
2018-01-16T21:04:27.152Z,60.80
2018-01-16T21:06:55.020Z,65.10
2018-01-16T21:09:22.886Z,64.87
2018-01-16T21:11:50.858Z,66.37
2018-01-16T21:14:19.031Z,61.63
2018-01-16T21:16:46.897Z,67.47
2018-01-16T21:19:14.771Z,68.23
2018-01-16T21:21:42.635Z,58.83
2018-01-16T21:24:10.701Z,56.30
2018-01-16T21:26:38.564Z,61.97
2018-01-16T21:29:06.442Z,62.47
2018-01-16T21:31:34.303Z,62.73
2018-01-16T21:34:02.173Z,59.87
2018-01-16T21:36:30.041Z,67.70
2018-01-16T21:38:57.900Z,55.00
2018-01-16T21:41:25.767Z,55.50
2018-01-16T21:43:53.638Z,58.07
2018-01-16T21:46:21.494Z,60.77
2018-01-16T21:48:49.473Z,64.83
2018-01-16T21:51:17.334Z,60.27
2018-01-16T21:53:45.199Z,59.70
2018-01-16T21:56:13.176Z,58.43
2018-01-16T21:58:41.144Z,60.97
2018-01-16T22:01:09.003Z,55.77
2018-01-16T22:03:36.876Z,53.77
2018-01-16T22:06:04.735Z,51.33
2018-01-16T22:08:32.601Z,52.87
2018-01-16T22:11:00.470Z,54.67
2018-01-16T22:13:28.335Z,58.60
2018-01-16T22:15:56.416Z,58.40
2018-01-16T22:18:24.384Z,58.07
2018-01-16T22:20:52.352Z,54.83
2018-01-16T22:23:20.212Z,55.03
2018-01-16T22:25:48.085Z,51.43
2018-01-16T22:28:15.944Z,49.70
2018-01-16T22:30:44.015Z,47.23
2018-01-16T22:33:12.699Z,46.83
2018-01-16T22:35:41.604Z,60.07
2018-01-16T22:38:09.572Z,51.60
2018-01-16T22:40:37.432Z,45.07
2018-01-16T22:43:05.294Z,43.90
2018-01-16T22:45:33.371Z,47.07
2018-01-16T22:48:01.340Z,50.10
2018-01-16T22:50:29.199Z,50.77
2018-01-16T22:52:57.069Z,50.33
2018-01-16T22:55:25.034Z,44.00
2018-01-16T22:57:52.900Z,51.07
2018-01-16T23:00:20.876Z,50.90
2018-01-16T23:02:48.840Z,51.70
2018-01-16T23:05:16.814Z,52.27
2018-01-16T23:07:44.782Z,50.90
2018-01-16T23:10:12.745Z,46.60
2018-01-16T23:12:40.721Z,50.90
2018-01-16T23:15:17.746Z,51.07
2018-01-16T23:17:45.535Z,47.07
2018-01-16T23:20:13.332Z,47.30
2018-01-16T23:22:41.196Z,49.50
2018-01-16T23:25:08.957Z,54.57
2018-01-16T23:27:36.697Z,48.73
2018-01-16T23:30:04.484Z,46.63
2018-01-16T23:32:32.305Z,47.47
2018-01-16T23:35:00.055Z,50.07
2018-01-16T23:37:28.615Z,48.00
2018-01-16T23:39:56.429Z,49.43
2018-01-16T23:42:24.155Z,52.77
2018-01-16T23:44:52.277Z,49.87
2018-01-16T23:47:20.096Z,53.47
2018-01-16T23:49:47.833Z,47.93
2018-01-16T23:52:15.625Z,51.23
2018-01-16T23:54:43.363Z,50.50
2018-01-16T23:57:11.101Z,50.13
2018-01-16T23:59:38.872Z,50.33
